Whallonsburg, New York
Current Conditions -  °F | °C
As of 1:54 PM on Friday 28 Nov 2014 (Local Time) from KBTV Reporting Station
Light Snow Light Snow  
Wind Chill: 18°   Ceiling: 3600
Heat Index: 27°   Visibility: 9mi
Dew Point: 13°   Wind: 9mph
Humidity: 56%   Direction: 290°WNW
Pressure: 30.1"   Gusts: NA
Location:  44.287°N, 73.399°W
Report Text: KBTV 281854Z 29008KT 9SM -SN BKN036 BKN050 M03/M11 A3010 RMK AO2 SNB47 SLP198 INTMT SHSN OBSCG MTNS E-SE P0000 T10281106
Loading
Personal Weather Stations






























Interactive Weather Map New forecast layout! Learn more

10-Day Weather Forecast

Advertisements
Track Severe Weather on mobile